createdAt,value
2023-04-15T00:00:01.221Z,95669.69
2023-04-15T00:02:29.849Z,95674.36
2023-04-15T00:04:58.032Z,95673.43
2023-04-15T00:07:26.250Z,95679.02
2023-04-15T00:09:56.480Z,95680.31
2023-04-15T00:12:27.412Z,95685.05
2023-04-15T00:14:57.133Z,95677.16
2023-04-15T00:17:25.198Z,95677.66
2023-04-15T00:19:53.356Z,95679.35
2023-04-15T00:22:21.614Z,95674.67
2023-04-15T00:24:49.507Z,95672.98
2023-04-15T00:27:17.480Z,95670.60
2023-04-15T00:29:45.546Z,95674.04
2023-04-15T00:32:13.788Z,95671.34
2023-04-15T00:34:42.767Z,95673.10
2023-04-15T00:37:10.966Z,95674.46
2023-04-15T00:39:39.350Z,95675.15
2023-04-15T00:42:07.438Z,95683.10
2023-04-15T00:44:35.510Z,95683.34
2023-04-15T00:47:04.095Z,95678.00
2023-04-15T00:49:32.486Z,95678.88
2023-04-15T00:52:00.552Z,95675.13
2023-04-15T00:54:28.614Z,95674.66
2023-04-15T00:56:56.689Z,95674.66
2023-04-15T00:59:24.767Z,95675.02
2023-04-15T01:01:52.911Z,95673.70
2023-04-15T01:04:21.194Z,95669.95
2023-04-15T01:06:49.396Z,95670.19
2023-04-15T01:09:17.981Z,95666.50
2023-04-15T01:11:46.050Z,95669.40
2023-04-15T01:14:14.219Z,95665.25
2023-04-15T01:16:42.602Z,95667.61
2023-04-15T01:19:10.881Z,95664.23
2023-04-15T01:21:39.975Z,95662.27
2023-04-15T01:24:09.921Z,95658.88
2023-04-15T01:26:39.319Z,95655.57
2023-04-15T01:29:09.722Z,95656.86
2023-04-15T01:31:37.982Z,95653.95
2023-04-15T01:34:06.276Z,95650.74
2023-04-15T01:36:34.406Z,95654.11
2023-04-15T01:39:02.805Z,95657.94
2023-04-15T01:41:31.100Z,95660.59
2023-04-15T01:43:59.067Z,95654.86
2023-04-15T01:46:27.173Z,95649.48
2023-04-15T01:48:55.224Z,95649.18
2023-04-15T01:51:23.501Z,95650.32
2023-04-15T01:53:52.526Z,95652.30
2023-04-15T01:56:20.479Z,95654.59
2023-04-15T01:58:49.043Z,95657.86
2023-04-15T02:01:19.653Z,95661.54
2023-04-15T02:03:48.491Z,95661.98
2023-04-15T02:06:16.837Z,95663.57
2023-04-15T02:08:45.434Z,95663.58
2023-04-15T02:11:13.816Z,95662.58
2023-04-15T02:13:41.954Z,95663.27
2023-04-15T02:16:19.204Z,95661.41
2023-04-15T02:18:47.652Z,95664.02
2023-04-15T02:21:15.713Z,95666.53
2023-04-15T02:23:44.212Z,95665.91
2023-04-15T02:26:14.928Z,95662.91
2023-04-15T02:28:43.006Z,95658.91
2023-04-15T02:31:11.186Z,95663.19
2023-04-15T02:33:39.246Z,95661.59
2023-04-15T02:36:08.564Z,95664.24
2023-04-15T02:38:38.298Z,95655.88
2023-04-15T02:41:06.284Z,95660.95
2023-04-15T02:43:35.632Z,95663.45
2023-04-15T02:46:04.154Z,95666.59
2023-04-15T02:48:32.620Z,95669.23
2023-04-15T02:51:19.917Z,95662.73
2023-04-15T02:53:49.011Z,95663.41
2023-04-15T02:56:17.584Z,95659.41
2023-04-15T02:58:50.848Z,95654.38
2023-04-15T03:01:20.735Z,95652.96
2023-04-15T03:03:49.403Z,95648.21
2023-04-15T03:06:17.670Z,95649.27
2023-04-15T03:08:45.810Z,95649.24
2023-04-15T03:11:15.351Z,95653.14
2023-04-15T03:13:43.792Z,95650.88
2023-04-15T03:16:21.365Z,95654.27
2023-04-15T03:18:49.607Z,95655.77
2023-04-15T03:21:18.156Z,95657.41
2023-04-15T03:23:48.919Z,95655.98
2023-04-15T03:26:27.737Z,95662.83
2023-04-15T03:28:56.629Z,95666.67
2023-04-15T03:31:24.844Z,95665.48
2023-04-15T03:33:53.076Z,95665.35
2023-04-15T03:36:21.356Z,95663.70
2023-04-15T03:38:50.216Z,95668.95
2023-04-15T03:41:18.415Z,95670.88
2023-04-15T03:43:46.500Z,95674.43
2023-04-15T03:46:14.683Z,95676.38
2023-04-15T03:48:42.628Z,95678.64
2023-04-15T03:51:10.984Z,95679.98
2023-04-15T03:53:38.984Z,95684.06
2023-04-15T03:56:07.530Z,95687.23
2023-04-15T03:58:36.043Z,95689.09
2023-04-15T04:01:03.972Z,95696.10
2023-04-15T04:03:32.386Z,95696.84
2023-04-15T04:06:00.676Z,95696.81
2023-04-15T04:08:28.750Z,95700.05
2023-04-15T04:10:57.285Z,95706.21
2023-04-15T04:13:25.526Z,95705.86
2023-04-15T04:15:53.721Z,95704.59
2023-04-15T04:18:21.929Z,95705.30
2023-04-15T04:20:50.026Z,95711.14
2023-04-15T04:23:17.993Z,95712.48
2023-04-15T04:25:46.376Z,95714.71
2023-04-15T04:28:14.435Z,95716.43
2023-04-15T04:30:42.521Z,95714.99
2023-04-15T04:33:11.403Z,95717.47
2023-04-15T04:35:39.794Z,95721.61
2023-04-15T04:38:07.672Z,95721.88
2023-04-15T04:40:35.830Z,95725.80
2023-04-15T04:43:04.004Z,95724.27
2023-04-15T04:45:32.085Z,95728.90
2023-04-15T04:48:00.294Z,95731.52
2023-04-15T04:50:28.541Z,95733.91
2023-04-15T04:52:56.589Z,95734.31
2023-04-15T04:55:24.668Z,95734.64
2023-04-15T04:57:52.851Z,95734.04
2023-04-15T05:00:21.305Z,95731.31
2023-04-15T05:02:49.475Z,95730.63
2023-04-15T05:05:17.978Z,95729.02
2023-04-15T05:07:46.123Z,95727.32
2023-04-15T05:10:15.432Z,95736.16
2023-04-15T05:12:43.784Z,95733.86
2023-04-15T05:15:12.319Z,95732.02
2023-04-15T05:17:40.433Z,95732.88
2023-04-15T05:20:09.873Z,95735.17
2023-04-15T05:22:37.855Z,95735.86
2023-04-15T05:25:06.556Z,95733.95
2023-04-15T05:27:34.810Z,95743.23
2023-04-15T05:30:02.989Z,95747.98
2023-04-15T05:32:31.421Z,95751.73
2023-04-15T05:34:59.492Z,95754.88
2023-04-15T05:37:27.436Z,95754.20
2023-04-15T05:39:55.485Z,95756.65
2023-04-15T05:42:23.674Z,95757.88
2023-04-15T05:44:52.077Z,95758.27
2023-04-15T05:47:20.128Z,95759.26
2023-04-15T05:49:48.191Z,95761.70
2023-04-15T05:52:16.890Z,95764.09
2023-04-15T05:54:45.043Z,95765.39
2023-04-15T05:57:13.130Z,95763.36
2023-04-15T05:59:42.312Z,95776.88
2023-04-15T06:02:10.656Z,95781.86
2023-04-15T06:04:39.467Z,95784.39
2023-04-15T06:07:07.656Z,95792.52
2023-04-15T06:09:36.366Z,95785.84
2023-04-15T06:12:04.835Z,95782.98
2023-04-15T06:14:32.816Z,95777.48
2023-04-15T06:17:01.406Z,95771.97
2023-04-15T06:19:29.765Z,95771.48
2023-04-15T06:21:58.458Z,95769.11
2023-04-15T06:24:26.382Z,95782.60
2023-04-15T06:26:54.413Z,95789.49
2023-04-15T06:29:22.364Z,95789.30
2023-04-15T06:31:50.566Z,95794.30
2023-04-15T06:34:18.600Z,95794.67
2023-04-15T06:36:46.772Z,95792.61
2023-04-15T06:39:14.848Z,95793.02
2023-04-15T06:41:43.335Z,95796.92
2023-04-15T06:44:11.606Z,95798.63
2023-04-15T06:46:39.673Z,95792.52
2023-04-15T06:49:08.364Z,95796.98
2023-04-15T06:51:36.933Z,95803.34
2023-04-15T06:54:06.336Z,95801.96
2023-04-15T06:56:34.417Z,95805.18
2023-04-15T06:59:02.682Z,95816.07
2023-04-15T07:01:31.088Z,95824.67
2023-04-15T07:03:59.250Z,95828.49
2023-04-15T07:06:27.934Z,95830.34
2023-04-15T07:08:55.846Z,95834.32
2023-04-15T07:11:23.877Z,95826.80
2023-04-15T07:13:51.844Z,95824.05
2023-04-15T07:16:19.942Z,95815.37
2023-04-15T07:18:48.210Z,95820.75
2023-04-15T07:21:16.127Z,95824.67
2023-04-15T07:23:44.133Z,95824.20
2023-04-15T07:26:12.513Z,95824.53
2023-04-15T07:28:40.653Z,95821.56
2023-04-15T07:31:09.225Z,95821.48
2023-04-15T07:33:38.120Z,95823.79
2023-04-15T07:36:06.536Z,95822.89
2023-04-15T07:38:34.499Z,95822.98
2023-04-15T07:41:02.794Z,95820.86
2023-04-15T07:43:30.704Z,95821.26
2023-04-15T07:45:58.750Z,95822.95
2023-04-15T07:48:27.189Z,95820.28
2023-04-15T07:50:55.166Z,95822.58
2023-04-15T07:53:23.186Z,95818.21
2023-04-15T07:55:51.046Z,95818.40
2023-04-15T07:58:19.199Z,95822.09
2023-04-15T08:00:47.454Z,95825.01
2023-04-15T08:03:15.827Z,95823.02
2023-04-15T08:05:44.929Z,95824.10
2023-04-15T08:08:13.001Z,95823.48
2023-04-15T08:10:41.066Z,95825.02
2023-04-15T08:13:09.359Z,95827.02
2023-04-15T08:15:37.530Z,95825.95
2023-04-15T08:18:05.602Z,95823.58
2023-04-15T08:20:34.085Z,95822.38
2023-04-15T08:23:02.362Z,95821.78
2023-04-15T08:25:30.433Z,95823.41
2023-04-15T08:27:58.506Z,95823.72
2023-04-15T08:30:26.436Z,95819.58
2023-04-15T08:32:54.581Z,95823.95
2023-04-15T08:35:23.230Z,95820.73
2023-04-15T08:40:19.529Z,95826.42
2023-04-15T08:42:49.290Z,95824.83
2023-04-15T08:45:17.556Z,95824.58
2023-04-15T08:47:45.891Z,95826.52
2023-04-15T08:50:14.009Z,95826.42
2023-04-15T08:52:42.604Z,95826.05
2023-04-15T08:55:10.780Z,95826.05
2023-04-15T08:57:40.011Z,95822.67
2023-04-15T09:00:09.491Z,95823.37
2023-04-15T09:02:37.520Z,95829.05
2023-04-15T09:05:07.033Z,95827.45
2023-04-15T09:07:36.686Z,95823.52
2023-04-15T09:10:05.489Z,95820.30
2023-04-15T09:12:37.111Z,95821.39
2023-04-15T09:15:05.796Z,95821.70
2023-04-15T09:17:34.314Z,95825.69
2023-04-15T09:20:15.552Z,95824.07
2023-04-15T09:22:44.961Z,95820.85
2023-04-15T09:25:18.658Z,95815.86
2023-04-15T09:27:50.484Z,95809.73
2023-04-15T09:30:18.895Z,95808.09
2023-04-15T09:32:57.188Z,95802.73
2023-04-15T09:35:26.298Z,95803.49
2023-04-15T09:38:02.183Z,95800.34
2023-04-15T09:40:38.455Z,95797.80
2023-04-15T09:43:07.350Z,95797.49
2023-04-15T09:45:36.021Z,95799.42
2023-04-15T09:48:18.845Z,95793.50
2023-04-15T09:50:47.305Z,95791.96
2023-04-15T09:53:22.345Z,95793.90
2023-04-15T09:55:54.817Z,95798.36
2023-04-15T09:58:27.808Z,95805.28
2023-04-15T10:00:57.227Z,95801.89
2023-04-15T10:03:27.720Z,95802.34
2023-04-15T10:05:57.379Z,95801.73
2023-04-15T10:08:35.554Z,95800.80
2023-04-15T10:11:03.734Z,95798.34
2023-04-15T10:13:37.146Z,95802.48
2023-04-15T10:16:11.983Z,95798.41
2023-04-15T10:18:47.929Z,95794.41
2023-04-15T10:21:18.885Z,95795.24
2023-04-15T10:23:47.236Z,95787.08
2023-04-15T10:26:15.808Z,95787.55
2023-04-15T10:28:50.289Z,95783.46
2023-04-15T10:31:18.778Z,95790.37
2023-04-15T10:33:47.620Z,95785.44
2023-04-15T10:36:16.192Z,95770.60
2023-04-15T10:38:45.954Z,95772.73
2023-04-15T10:41:21.043Z,95771.50
2023-04-15T10:44:09.749Z,95772.34
2023-04-15T10:46:39.559Z,95772.34
2023-04-15T10:49:12.599Z,95768.48
2023-04-15T10:51:45.784Z,95768.02
2023-04-15T10:54:17.734Z,95768.55
2023-04-15T10:56:45.922Z,95767.77
2023-04-15T10:59:13.897Z,95768.77
2023-04-15T11:02:00.268Z,95771.74
2023-04-15T11:05:00.929Z,95769.84
2023-04-15T11:07:35.828Z,95765.97
2023-04-15T11:10:09.810Z,95771.26
2023-04-15T11:12:38.051Z,95773.56
2023-04-15T11:15:24.947Z,95770.93
2023-04-15T11:17:53.174Z,95775.92
2023-04-15T11:20:21.506Z,95771.08
2023-04-15T11:22:50.820Z,95773.33
2023-04-15T11:25:29.224Z,95772.45
2023-04-15T11:27:58.320Z,95774.66
2023-04-15T11:30:27.925Z,95775.81
2023-04-15T11:32:58.407Z,95776.04
2023-04-15T11:35:26.848Z,95777.19
2023-04-15T11:37:55.521Z,95779.64
2023-04-15T11:40:30.539Z,95779.02
2023-04-15T11:43:11.610Z,95780.46
2023-04-15T11:45:59.301Z,95775.84
2023-04-15T11:48:34.895Z,95775.13
2023-04-15T11:51:07.081Z,95775.67
2023-04-15T11:53:46.332Z,95770.30
2023-04-15T11:56:32.432Z,95778.59
2023-04-15T11:59:00.493Z,95771.37
2023-04-15T12:01:47.869Z,95771.36
2023-04-15T12:19:42.501Z,95773.23
2023-04-15T12:22:15.374Z,95775.01
2023-04-15T12:24:44.377Z,95773.38
2023-04-15T12:27:12.996Z,95764.46
2023-04-15T12:29:43.292Z,95771.61
2023-04-15T12:32:11.468Z,95766.92
2023-04-15T12:34:52.250Z,95763.30
2023-04-15T12:37:20.309Z,95763.92
2023-04-15T12:39:49.899Z,95762.23
2023-04-15T12:42:18.383Z,95761.30
2023-04-15T12:44:47.057Z,95760.02
2023-04-15T12:54:56.144Z,95772.75
2023-04-15T12:57:24.240Z,95776.36
2023-04-15T12:59:52.313Z,95765.60
2023-04-15T13:02:21.315Z,95762.23
2023-04-15T13:04:49.432Z,95766.45
2023-04-15T13:07:17.755Z,95760.16
2023-04-15T13:09:45.818Z,95766.61
2023-04-15T13:19:55.168Z,95791.06
2023-04-15T13:22:23.275Z,95780.28
2023-04-15T13:24:51.764Z,95786.83
2023-04-15T13:27:19.740Z,95796.21
2023-04-15T13:29:47.802Z,95800.91
2023-04-15T13:32:15.875Z,95806.62
2023-04-15T13:34:44.035Z,95808.92
2023-04-15T13:37:12.220Z,95812.77
2023-04-15T13:39:40.717Z,95812.56
2023-04-15T13:42:08.982Z,95815.95
2023-04-15T13:44:36.931Z,95821.80
2023-04-15T13:47:05.133Z,95825.73
2023-04-15T13:49:33.205Z,95840.20
2023-04-15T13:52:01.261Z,95843.28
2023-04-15T13:54:37.489Z,95843.22
2023-04-15T13:57:06.666Z,95838.06
2023-04-15T13:59:37.682Z,95845.60
2023-04-15T14:02:05.810Z,95848.29
2023-04-15T14:04:34.026Z,95843.66
2023-04-15T14:07:03.400Z,95845.74
2023-04-15T14:12:02.428Z,95843.36
2023-04-15T14:14:30.582Z,95846.28
2023-04-15T14:16:59.012Z,95857.38
2023-04-15T14:19:27.262Z,95864.48
2023-04-15T14:21:55.742Z,95867.77
2023-04-15T14:24:23.704Z,95870.02
2023-04-15T14:26:51.776Z,95870.17
2023-04-15T14:29:20.359Z,95873.10
2023-04-15T14:32:04.018Z,95875.34
2023-04-15T14:34:37.935Z,95877.49
2023-04-15T14:37:05.948Z,95883.50
2023-04-15T14:39:34.163Z,95889.73
2023-04-15T14:42:02.404Z,95893.36
2023-04-15T14:46:59.605Z,95890.13
2023-04-15T14:49:27.851Z,95892.75
2023-04-15T14:51:55.805Z,95890.38
2023-04-15T14:54:23.928Z,95890.05
2023-04-15T14:56:52.101Z,95895.53
2023-04-15T14:59:20.070Z,95901.77
2023-04-15T15:01:48.187Z,95905.53
2023-04-15T15:04:16.493Z,95907.92
2023-04-15T15:06:45.121Z,95915.15
2023-04-15T15:09:14.302Z,95923.52
2023-04-15T15:11:42.199Z,95930.22
2023-04-15T15:14:10.352Z,95943.30
2023-04-15T15:16:38.405Z,95975.41
2023-04-15T15:19:06.482Z,95999.62
2023-04-15T15:21:35.379Z,95990.23
2023-04-15T15:24:03.651Z,96009.83
2023-04-15T15:26:32.029Z,96023.41
2023-04-15T15:29:00.145Z,96023.54
2023-04-15T15:31:28.134Z,96029.89
2023-04-15T15:33:56.246Z,96030.80
2023-04-15T15:36:24.077Z,96023.80
2023-04-15T15:38:52.101Z,96020.05
2023-04-15T15:41:20.105Z,96012.19
2023-04-15T15:43:48.121Z,96007.89
2023-04-15T15:46:16.436Z,96008.27
2023-04-15T15:48:44.464Z,96003.05
2023-04-15T15:51:12.824Z,95987.62
2023-04-15T15:53:40.926Z,95972.10
2023-04-15T15:56:08.955Z,95969.27
2023-04-15T15:58:37.057Z,95967.87
2023-04-15T16:01:05.199Z,95960.41
2023-04-15T16:03:33.579Z,95956.27
2023-04-15T16:06:01.998Z,95952.64
2023-04-15T16:08:30.059Z,95945.95
2023-04-15T16:10:58.220Z,95947.88
2023-04-15T16:13:26.446Z,95943.80
2023-04-15T16:15:54.728Z,95945.79
2023-04-15T16:18:22.756Z,95937.20
2023-04-15T16:20:51.169Z,95940.42
2023-04-15T16:23:19.662Z,95940.73
2023-04-15T16:25:48.413Z,95939.41
2023-04-15T16:28:26.309Z,95941.33
2023-04-15T16:30:55.715Z,95943.26
2023-04-15T16:33:23.636Z,95945.09
2023-04-15T16:35:51.761Z,95948.70
2023-04-15T16:38:19.835Z,95949.15
2023-04-15T16:40:48.003Z,95950.30
2023-04-15T16:43:16.178Z,95951.61
2023-04-15T16:45:45.579Z,95952.52
2023-04-15T16:48:13.753Z,95951.77
2023-04-15T16:50:41.833Z,95950.05
2023-04-15T16:53:09.914Z,95953.73
2023-04-15T16:55:37.928Z,95955.27
2023-04-15T16:58:08.350Z,95957.55
2023-04-15T17:00:37.254Z,95963.23
2023-04-15T17:03:06.164Z,95968.51
2023-04-15T17:05:34.772Z,95970.58
2023-04-15T17:08:02.728Z,95975.02
2023-04-15T17:10:31.427Z,95983.52
2023-04-15T17:15:32.491Z,95992.10
2023-04-15T17:18:00.701Z,95996.83
2023-04-15T17:20:28.831Z,96002.55
2023-04-15T17:22:56.910Z,96004.29
2023-04-15T17:25:24.970Z,96010.11
2023-04-15T17:27:53.146Z,96017.61
2023-04-15T17:30:21.624Z,96021.80
2023-04-15T17:32:49.609Z,96026.31
2023-04-15T17:35:18.591Z,96030.44
2023-04-15T17:37:46.541Z,96031.88
2023-04-15T17:40:15.045Z,96036.77
2023-04-15T17:42:43.009Z,96042.73
2023-04-15T17:45:11.695Z,96050.77
2023-04-15T17:47:39.721Z,96057.18
2023-04-15T17:50:09.469Z,96061.31
2023-04-15T17:52:37.442Z,96067.58
2023-04-15T17:57:39.935Z,96074.35
2023-04-15T18:00:10.298Z,96083.67
2023-04-15T18:02:41.466Z,96088.11
2023-04-15T18:05:10.566Z,96095.38
2023-04-15T18:07:38.777Z,96098.88
2023-04-15T18:10:08.289Z,96100.91
2023-04-15T18:12:36.248Z,96106.52
2023-04-15T18:15:06.467Z,96110.75
2023-04-15T18:17:34.553Z,96116.59
2023-04-15T18:20:02.929Z,96119.90
2023-04-15T18:22:30.898Z,96122.84
2023-04-15T18:25:04.618Z,96127.91
2023-04-15T18:27:33.600Z,96134.60
2023-04-15T18:30:01.577Z,96139.38
2023-04-15T18:32:32.866Z,96146.29
2023-04-15T18:35:01.308Z,96155.75
2023-04-15T18:37:32.030Z,96160.52
2023-04-15T18:40:00.408Z,96162.84
2023-04-15T18:42:28.479Z,96167.08
2023-04-15T18:44:56.479Z,96170.31
2023-04-15T18:47:27.112Z,96174.85
2023-04-15T18:49:55.488Z,96173.65
2023-04-15T18:52:23.737Z,96177.73
2023-04-15T18:54:51.807Z,96175.60
2023-04-15T18:57:24.522Z,96177.91
2023-04-15T19:00:02.680Z,96179.60
2023-04-15T19:02:30.734Z,96177.54
2023-04-15T19:04:58.946Z,96181.78
2023-04-15T19:07:27.230Z,96182.79
2023-04-15T19:09:55.482Z,96181.73
2023-04-15T19:12:23.661Z,96178.66
2023-04-15T19:14:51.739Z,96176.84
2023-04-15T19:17:20.168Z,96178.07
2023-04-15T19:19:48.218Z,96177.08
2023-04-15T19:22:16.642Z,96179.46
2023-04-15T19:24:44.868Z,96182.84
2023-04-15T19:27:12.916Z,96188.36
2023-04-15T19:29:41.209Z,96185.21
2023-04-15T19:32:09.264Z,96184.75
2023-04-15T19:34:37.231Z,96184.75
2023-04-15T19:37:05.312Z,96186.52
2023-04-15T19:39:33.969Z,96189.20
2023-04-15T19:42:02.890Z,96183.08
2023-04-15T19:44:30.929Z,96191.48
2023-04-15T19:46:59.235Z,96196.70
2023-04-15T19:49:27.306Z,96194.32
2023-04-15T19:51:56.098Z,96199.00
2023-04-15T19:54:24.134Z,96196.45
2023-04-15T19:56:52.346Z,96194.46
2023-04-15T19:59:20.406Z,96191.45
2023-04-15T20:01:48.872Z,96189.98
2023-04-15T20:04:17.070Z,96189.38
2023-04-15T20:06:45.859Z,96190.81
2023-04-15T20:09:14.205Z,96193.40
2023-04-15T20:12:10.065Z,96194.93
2023-04-15T20:14:31.171Z,96202.42
2023-04-15T20:16:59.344Z,96201.48
2023-04-15T20:19:27.419Z,96204.02
2023-04-15T20:21:55.491Z,96205.53
2023-04-15T20:24:24.395Z,96206.91
2023-04-15T20:26:52.445Z,96207.11
2023-04-15T20:29:20.390Z,96206.58
2023-04-15T20:31:48.734Z,96205.86
2023-04-15T20:34:16.868Z,96207.24
2023-04-15T20:36:44.741Z,96212.20
2023-04-15T20:39:12.689Z,96215.34
2023-04-15T20:41:40.771Z,96213.50
2023-04-15T20:44:08.849Z,96214.30
2023-04-15T20:46:37.073Z,96216.84
2023-04-15T20:49:05.701Z,96219.97
2023-04-15T20:51:37.874Z,96226.38
2023-04-15T20:54:06.333Z,96228.37
2023-04-15T20:56:34.430Z,96228.91
2023-04-15T20:59:02.628Z,96232.20
2023-04-15T21:01:30.991Z,96234.16
2023-04-15T21:03:59.616Z,96237.89
2023-04-15T21:06:27.736Z,96238.74
2023-04-15T21:08:55.924Z,96237.88
2023-04-15T21:11:40.963Z,96241.40
2023-04-15T21:14:12.546Z,96240.78
2023-04-15T21:16:40.865Z,96241.30
2023-04-15T21:19:09.593Z,96243.83
2023-04-15T21:21:37.581Z,96246.58
2023-04-15T21:24:07.882Z,96247.80
2023-04-15T21:26:36.479Z,96248.45
2023-04-15T21:29:04.685Z,96246.90
2023-04-15T21:31:33.102Z,96247.20
2023-04-15T21:34:01.313Z,96252.17
2023-04-15T21:36:29.712Z,96252.61
2023-04-15T21:38:57.972Z,96257.48
2023-04-15T21:41:26.655Z,96258.90
2023-04-15T21:43:54.763Z,96259.27
2023-04-15T21:46:25.684Z,96260.77
2023-04-15T21:49:00.609Z,96259.61
2023-04-15T21:51:28.767Z,96263.90
2023-04-15T21:53:56.939Z,96263.58
2023-04-15T21:56:25.544Z,96265.91
2023-04-15T21:58:56.526Z,96263.56
2023-04-15T22:01:26.483Z,96259.70
2023-04-15T22:03:54.826Z,96260.10
2023-04-15T22:06:23.145Z,96254.27
2023-04-15T22:09:11.942Z,96259.38
2023-04-15T22:11:39.455Z,96260.48
2023-04-15T22:14:07.439Z,96258.86
2023-04-15T22:16:35.409Z,96247.70
2023-04-15T22:19:03.553Z,96262.02
2023-04-15T22:21:32.042Z,96268.11
2023-04-15T22:24:32.075Z,96270.48
2023-04-15T22:26:48.225Z,96273.67
2023-04-15T22:29:16.335Z,96277.73
2023-04-15T22:31:44.575Z,96279.55
2023-04-15T22:34:14.937Z,96281.89
2023-04-15T22:36:43.132Z,96283.63
2023-04-15T22:39:11.285Z,96287.96
2023-04-15T22:41:39.563Z,96286.48
2023-04-15T22:44:07.639Z,96289.73
2023-04-15T22:46:35.656Z,96288.42
2023-04-15T22:49:07.079Z,96293.16
2023-04-15T22:51:36.716Z,96295.77
2023-04-15T22:54:04.731Z,96298.73
2023-04-15T22:56:32.859Z,96295.04
2023-04-15T22:59:01.078Z,96294.78
2023-04-15T23:01:29.272Z,96296.05
2023-04-15T23:04:07.328Z,96293.14
2023-04-15T23:06:45.472Z,96291.25
2023-04-15T23:09:13.649Z,96291.98
2023-04-15T23:11:42.026Z,96294.46
2023-04-15T23:14:10.210Z,96294.68
2023-04-15T23:16:38.188Z,96296.89
2023-04-15T23:19:06.474Z,96299.25
2023-04-15T23:21:34.617Z,96296.35
2023-04-15T23:24:02.609Z,96295.94
2023-04-15T23:26:31.377Z,96296.99
2023-04-15T23:28:59.342Z,96296.41
2023-04-15T23:31:27.261Z,96299.23
2023-04-15T23:33:55.388Z,96298.11
2023-04-15T23:36:23.449Z,96301.31
2023-04-15T23:38:51.392Z,96299.38
2023-04-15T23:41:19.305Z,96296.61
2023-04-15T23:43:47.364Z,96296.80
2023-04-15T23:46:15.783Z,96296.55
2023-04-15T23:48:43.916Z,96292.55
2023-04-15T23:51:11.980Z,96294.64
2023-04-15T23:53:40.078Z,96297.61
2023-04-15T23:56:08.226Z,96296.15
2023-04-15T23:58:36.682Z,96297.19
